Goode, Virginia
Current Conditions -  °F | °C
As of 8:54 AM on Thursday 30 Oct 2014 (Local Time) from KLYH Reporting Station
Clear Clear  
Wind Chill: 44°   Ceiling: Unl
Heat Index: 44°   Visibility: 10mi
Dew Point: 41°   Wind: 0mph
Humidity: 89%   Direction: NA
Pressure: 30.09"   Gusts: NA
Location:  37.36°N, 79.39°W
Report Text: KLYH 301254Z 00000KT 10SM CLR 07/05 A3009 RMK AO2 SLP189 T00670050
Loading
Personal Weather Stations






























Interactive Weather Map New forecast layout! Learn more

10-Day Weather Forecast

Advertisements
Track Severe Weather on mobile